Terminal Aerodrome Forecast
Issued by NWS

Home | Current Version | Previous Version | Text Only | Print | Product List | Glossary On
Versions: 1 2 3 4 5 6 7 8 9 10 11 12 13 14
000
FTUS45 KRIW 261100
TAFRKS
TAF
KRKS 261125Z 2612/2712 21006KT P6SM VCFG FEW005 SCT080
     FM261600 26008KT P6SM VCSH SCT030 BKN060
     FM262100 VRB10G18KT P6SM VCTS SCT030 BKN060CB
     FM270200 24008KT P6SM VCSH SCT030 BKN060
     FM270800 22006KT P6SM FEW005 SCT060=

USA.gov is the U.S. government's official web portal to all federal, state and local government web resources and services.